createdAt,value
2018-08-20T00:00:58.971Z,14.03
2018-08-20T00:03:29.588Z,12.17
2018-08-20T00:05:58.277Z,13.40
2018-08-20T00:08:26.916Z,11.77
2018-08-20T00:10:57.909Z,13.50
2018-08-20T00:13:27.099Z,14.63
2018-08-20T00:15:56.355Z,14.43
2018-08-20T00:18:30.161Z,12.23
2018-08-20T00:20:58.838Z,14.50
2018-08-20T00:23:27.497Z,12.53
2018-08-20T00:25:58.390Z,11.77
2018-08-20T00:28:27.927Z,12.53
2018-08-20T00:30:56.627Z,12.93
2018-08-20T00:33:25.267Z,15.87
2018-08-20T00:35:53.930Z,16.70
2018-08-20T00:38:22.617Z,16.23
2018-08-20T00:40:51.279Z,13.73
2018-08-20T00:43:19.921Z,15.23
2018-08-20T00:45:48.592Z,15.13
2018-08-20T00:48:17.245Z,15.20
2018-08-20T00:50:45.911Z,14.73
2018-08-20T00:53:14.557Z,19.27
2018-08-20T00:55:43.237Z,13.07
2018-08-20T00:58:11.889Z,15.83
2018-08-20T01:00:40.559Z,14.30
2018-08-20T01:03:09.236Z,14.63
2018-08-20T01:05:37.890Z,15.43
2018-08-20T01:08:06.560Z,13.03
2018-08-20T01:10:35.229Z,15.30
2018-08-20T01:13:03.904Z,12.40
2018-08-20T01:15:32.580Z,14.50
2018-08-20T01:18:01.272Z,12.03
2018-08-20T01:20:29.963Z,16.53
2018-08-20T01:22:58.642Z,13.97
2018-08-20T01:25:27.305Z,14.40
2018-08-20T01:27:55.983Z,13.60
2018-08-20T01:30:24.663Z,13.70
2018-08-20T01:33:01.233Z,12.20
2018-08-20T01:35:29.912Z,12.47
2018-08-20T01:37:58.587Z,13.20
2018-08-20T01:40:27.229Z,15.30
2018-08-20T01:42:55.906Z,16.93
2018-08-20T01:45:24.576Z,13.10
2018-08-20T01:47:53.267Z,15.27
2018-08-20T01:50:21.926Z,16.00
2018-08-20T01:52:50.597Z,16.70
2018-08-20T01:55:19.251Z,16.13
2018-08-20T01:57:47.924Z,15.40
2018-08-20T02:00:16.618Z,12.13
2018-08-20T02:02:49.462Z,13.00
2018-08-20T02:05:18.175Z,15.27
2018-08-20T02:07:46.900Z,14.67
2018-08-20T02:10:15.578Z,14.70
2018-08-20T02:12:44.299Z,13.50
2018-08-20T02:15:12.980Z,12.73
2018-08-20T02:17:41.694Z,11.40
2018-08-20T02:20:10.426Z,13.50
2018-08-20T02:22:39.117Z,12.93
2018-08-20T02:25:07.777Z,13.33
2018-08-20T02:27:36.458Z,12.40
2018-08-20T02:30:05.927Z,12.53
2018-08-20T02:32:34.596Z,13.30
2018-08-20T02:35:03.339Z,15.77
2018-08-20T02:37:36.135Z,14.20
2018-08-20T02:40:06.833Z,11.90
2018-08-20T02:42:35.768Z,14.77
2018-08-20T02:45:05.367Z,12.67
2018-08-20T02:47:34.040Z,11.07
2018-08-20T02:50:02.691Z,12.50
2018-08-20T02:52:31.408Z,14.67
2018-08-20T02:55:00.063Z,14.40
2018-08-20T02:57:28.737Z,13.00
2018-08-20T02:59:57.399Z,17.53
2018-08-20T03:02:26.103Z,11.87
2018-08-20T03:04:54.756Z,12.70
2018-08-20T03:07:23.458Z,14.87
2018-08-20T03:09:52.118Z,14.57
2018-08-20T03:12:20.803Z,12.10
2018-08-20T03:14:49.452Z,16.30
2018-08-20T03:17:18.168Z,14.03
2018-08-20T03:19:46.839Z,11.67
2018-08-20T03:22:15.563Z,13.50
2018-08-20T03:24:44.207Z,16.40
2018-08-20T03:27:12.875Z,11.23
2018-08-20T03:29:41.537Z,12.63
2018-08-20T03:32:10.177Z,13.87
2018-08-20T03:34:38.848Z,13.57
2018-08-20T03:37:07.508Z,13.10
2018-08-20T03:39:36.187Z,12.73
2018-08-20T03:42:04.878Z,14.53
2018-08-20T03:44:33.541Z,15.53
2018-08-20T03:47:02.191Z,14.77
2018-08-20T03:49:30.850Z,15.13
2018-08-20T03:51:59.514Z,15.67
2018-08-20T03:54:28.242Z,12.50
2018-08-20T03:56:56.883Z,14.10
2018-08-20T03:59:32.364Z,14.37
2018-08-20T04:02:02.892Z,17.77
2018-08-20T04:04:31.687Z,14.70
2018-08-20T04:07:02.447Z,12.77
2018-08-20T04:09:31.868Z,11.10
2018-08-20T04:12:01.368Z,12.93
2018-08-20T04:14:30.105Z,14.57
2018-08-20T04:16:59.250Z,15.13
2018-08-20T04:19:28.321Z,12.90
2018-08-20T04:21:57.079Z,12.63
2018-08-20T04:24:25.757Z,11.57
2018-08-20T04:26:54.419Z,10.80
2018-08-20T04:29:23.204Z,11.87
2018-08-20T04:31:51.864Z,12.20
2018-08-20T04:34:20.523Z,14.70
2018-08-20T04:36:49.180Z,13.27
2018-08-20T04:39:17.840Z,14.27
2018-08-20T04:41:46.487Z,12.10
2018-08-20T04:44:15.151Z,11.80
2018-08-20T04:46:43.808Z,12.70
2018-08-20T04:49:12.463Z,11.10
2018-08-20T04:51:41.108Z,9.63
2018-08-20T04:54:09.764Z,12.33
2018-08-20T04:56:38.400Z,9.63
2018-08-20T04:59:07.075Z,11.27
2018-08-20T05:01:35.740Z,13.63
2018-08-20T05:04:04.479Z,11.27
2018-08-20T05:06:33.122Z,15.23
2018-08-20T05:09:01.775Z,11.73
2018-08-20T05:11:30.442Z,11.57
2018-08-20T05:13:59.106Z,12.23
2018-08-20T05:16:27.743Z,10.30
2018-08-20T05:18:56.441Z,11.87
2018-08-20T05:21:25.124Z,11.63
2018-08-20T05:23:53.809Z,15.30
2018-08-20T05:26:22.488Z,10.50
2018-08-20T05:28:51.167Z,11.77
2018-08-20T05:31:19.824Z,11.33
2018-08-20T05:33:48.501Z,12.40
2018-08-20T05:36:17.143Z,17.07
2018-08-20T05:38:45.821Z,15.03
2018-08-20T05:41:14.480Z,13.63
2018-08-20T05:43:43.155Z,12.03
2018-08-20T05:46:11.824Z,13.40
2018-08-20T05:48:40.508Z,11.50
2018-08-20T05:51:09.201Z,10.27
2018-08-20T05:53:37.868Z,14.23
2018-08-20T05:56:06.733Z,12.50
2018-08-20T05:58:35.394Z,12.93
2018-08-20T06:01:04.152Z,13.60
2018-08-20T06:03:32.819Z,16.90
2018-08-20T06:06:01.504Z,12.93
2018-08-20T06:08:30.227Z,14.87
2018-08-20T06:10:58.923Z,18.80
2018-08-20T06:13:27.602Z,13.37
2018-08-20T06:15:56.340Z,10.67
2018-08-20T06:18:24.990Z,16.00
2018-08-20T06:20:53.720Z,15.53
2018-08-20T06:23:22.375Z,11.80
2018-08-20T06:25:51.052Z,13.30
2018-08-20T06:28:19.704Z,14.97
2018-08-20T06:30:48.400Z,11.63
2018-08-20T06:33:17.100Z,11.73
2018-08-20T06:35:45.803Z,11.47
2018-08-20T06:38:14.456Z,12.80
2018-08-20T06:40:43.100Z,12.20
2018-08-20T06:43:11.748Z,13.33
2018-08-20T06:45:40.416Z,10.73
2018-08-20T06:48:09.135Z,10.30
2018-08-20T06:50:37.797Z,10.33
2018-08-20T06:53:06.778Z,11.33
2018-08-20T07:10:18.677Z,9.17
2018-08-20T07:12:47.452Z,8.53
2018-08-20T07:15:16.710Z,8.50
2018-08-20T07:17:45.541Z,8.70
2018-08-20T07:20:15.824Z,9.90
2018-08-20T07:22:45.005Z,12.03
2018-08-20T07:25:13.696Z,14.17
2018-08-20T07:27:42.346Z,7.07
2018-08-20T07:30:11.909Z,7.73
2018-08-20T07:32:40.566Z,7.53
2018-08-20T07:35:09.219Z,7.33
2018-08-20T07:37:37.867Z,5.80
2018-08-20T07:40:07.798Z,6.83
2018-08-20T07:42:36.467Z,6.03
2018-08-20T07:45:05.267Z,7.00
2018-08-20T07:47:33.903Z,8.70
2018-08-20T07:50:02.577Z,8.50
2018-08-20T07:52:31.236Z,12.30
2018-08-20T07:54:59.910Z,8.87
2018-08-20T07:57:29.007Z,8.10
2018-08-20T07:59:57.658Z,6.73
2018-08-20T08:02:26.329Z,6.70
2018-08-20T08:04:55.013Z,8.07
2018-08-20T08:07:23.698Z,6.67
2018-08-20T08:09:52.335Z,8.97
2018-08-20T08:12:21.027Z,7.57
2018-08-20T08:14:49.677Z,6.77
2018-08-20T08:17:18.339Z,9.80
2018-08-20T08:19:47.041Z,6.10
2018-08-20T08:22:15.724Z,6.40
2018-08-20T08:24:44.435Z,6.80
2018-08-20T08:27:13.113Z,6.47
2018-08-20T08:29:41.761Z,6.27
2018-08-20T08:32:10.439Z,8.60
2018-08-20T08:34:39.089Z,7.30
2018-08-20T08:37:07.779Z,18.53
2018-08-20T08:39:36.476Z,12.13
2018-08-20T08:42:05.240Z,8.70
2018-08-20T08:44:33.891Z,13.33
2018-08-20T08:47:02.689Z,13.07
2018-08-20T08:49:31.323Z,12.73
2018-08-20T08:52:00.111Z,11.20
2018-08-20T08:54:28.755Z,12.17
2018-08-20T08:56:57.418Z,14.73
2018-08-20T08:59:26.060Z,10.77
2018-08-20T09:01:55.454Z,14.83
2018-08-20T09:04:24.189Z,11.00
2018-08-20T09:06:56.093Z,8.83
2018-08-20T09:09:25.831Z,7.37
2018-08-20T09:11:56.601Z,8.27
2018-08-20T09:14:25.888Z,8.27
2018-08-20T09:16:54.835Z,10.07
2018-08-20T09:19:23.747Z,8.33
2018-08-20T09:21:52.620Z,9.50
2018-08-20T09:24:21.300Z,9.30
2018-08-20T09:26:50.031Z,7.27
2018-08-20T09:29:18.698Z,13.80
2018-08-20T09:31:47.382Z,6.73
2018-08-20T09:34:16.569Z,7.50
2018-08-20T09:36:45.447Z,4.57
2018-08-20T09:39:14.084Z,5.03
2018-08-20T09:41:42.855Z,4.57
2018-08-20T09:44:11.576Z,3.03
2018-08-20T09:46:40.260Z,2.20
2018-08-20T09:49:08.897Z,2.33
2018-08-20T09:51:37.569Z,3.30
2018-08-20T09:54:06.237Z,2.80
2018-08-20T09:56:34.909Z,2.70
2018-08-20T09:59:03.639Z,4.53
2018-08-20T10:01:32.320Z,2.80
2018-08-20T10:04:00.982Z,3.10
2018-08-20T10:06:29.655Z,6.20
2018-08-20T10:08:58.368Z,4.37
2018-08-20T10:11:27.034Z,4.10
2018-08-20T10:13:55.716Z,5.17
2018-08-20T10:16:26.204Z,5.13
2018-08-20T10:18:55.469Z,5.60
2018-08-20T10:21:24.123Z,6.23
2018-08-20T10:23:52.780Z,2.90
2018-08-20T10:26:21.421Z,4.10
2018-08-20T10:28:50.111Z,2.70
2018-08-20T10:31:18.760Z,1.50
2018-08-20T10:33:47.447Z,1.50
2018-08-20T10:36:16.096Z,2.33
2018-08-20T10:38:44.855Z,1.33
2018-08-20T10:41:13.482Z,1.80
2018-08-20T10:43:42.177Z,1.20
2018-08-20T10:46:16.062Z,4.43
2018-08-20T10:48:44.722Z,1.47
2018-08-20T10:51:13.415Z,1.63
2018-08-20T10:53:42.096Z,2.27
2018-08-20T10:56:10.759Z,1.40
2018-08-20T10:58:39.424Z,1.90
2018-08-20T11:01:08.186Z,1.33
2018-08-20T11:03:36.904Z,1.70
2018-08-20T11:06:05.560Z,1.70
2018-08-20T11:08:48.972Z,1.43
2018-08-20T11:14:02.587Z,1.43
2018-08-20T11:16:44.376Z,1.10
2018-08-20T11:19:26.810Z,1.90
2018-08-20T11:22:26.436Z,1.10
2018-08-20T11:25:10.289Z,1.20
2018-08-20T11:27:56.014Z,1.07
2018-08-20T11:30:30.657Z,0.80
2018-08-20T11:33:17.743Z,1.40
2018-08-20T11:36:05.756Z,1.10
2018-08-20T11:38:41.854Z,1.07
2018-08-20T11:44:02.355Z,0.90
2018-08-20T11:46:48.037Z,0.70
2018-08-20T11:49:32.542Z,0.90
2018-08-20T11:52:11.067Z,3.60
2018-08-20T11:57:29.187Z,0.90
2018-08-20T11:59:58.067Z,0.60
2018-08-20T12:02:26.736Z,1.60
2018-08-20T12:04:55.399Z,2.13
2018-08-20T12:07:24.156Z,0.87
2018-08-20T12:09:52.803Z,1.33
2018-08-20T12:12:21.444Z,2.30
2018-08-20T12:14:50.097Z,0.80
2018-08-20T12:17:18.795Z,1.00
2018-08-20T12:19:48.269Z,0.83
2018-08-20T12:22:16.949Z,1.10
2018-08-20T12:24:45.587Z,1.00
2018-08-20T12:27:14.219Z,1.00
2018-08-20T12:29:42.867Z,1.20
2018-08-20T12:32:11.496Z,1.10
2018-08-20T12:34:40.138Z,0.97
2018-08-20T12:37:08.955Z,0.80
2018-08-20T12:39:37.592Z,0.70
2018-08-20T12:42:06.232Z,5.63
2018-08-20T12:44:34.891Z,0.90
2018-08-20T12:47:03.596Z,1.10
2018-08-20T12:49:32.247Z,1.10
2018-08-20T12:52:00.886Z,1.67
2018-08-20T12:54:29.519Z,0.90
2018-08-20T12:56:58.137Z,1.70
2018-08-20T12:59:26.795Z,0.93
2018-08-20T13:01:55.421Z,1.00
2018-08-20T13:04:24.090Z,0.90
2018-08-20T13:06:52.716Z,1.07
2018-08-20T13:09:21.391Z,1.20
2018-08-20T13:11:50.015Z,2.40
2018-08-20T13:14:18.663Z,1.80
2018-08-20T13:16:47.383Z,1.73
2018-08-20T13:19:16.078Z,1.53
2018-08-20T13:21:44.715Z,0.97
2018-08-20T13:24:13.385Z,4.40
2018-08-20T13:26:42.012Z,1.77
2018-08-20T13:29:10.680Z,1.00
2018-08-20T13:31:39.313Z,0.70
2018-08-20T13:34:08.020Z,0.70
2018-08-20T13:36:36.653Z,2.63
2018-08-20T13:39:07.267Z,0.90
2018-08-20T13:41:36.018Z,0.80
2018-08-20T13:44:05.045Z,1.00
2018-08-20T13:46:33.687Z,1.10
2018-08-20T13:49:02.397Z,0.70
2018-08-20T13:51:31.043Z,0.60
2018-08-20T13:53:59.676Z,0.70
2018-08-20T13:56:28.327Z,1.73
2018-08-20T13:58:56.971Z,0.73
2018-08-20T14:01:25.607Z,1.20
2018-08-20T14:03:54.324Z,0.70
2018-08-20T14:06:22.974Z,0.93
2018-08-20T14:08:51.598Z,0.60
2018-08-20T14:11:20.232Z,1.53
2018-08-20T14:13:49.396Z,0.67
2018-08-20T14:16:18.041Z,0.60
2018-08-20T14:18:46.857Z,0.60
2018-08-20T14:21:16.330Z,0.60
2018-08-20T14:23:47.603Z,1.00
2018-08-20T14:26:16.320Z,0.73
2018-08-20T14:28:45.132Z,0.60
2018-08-20T14:31:13.803Z,1.83
2018-08-20T14:33:42.434Z,1.33
2018-08-20T14:36:11.153Z,1.00
2018-08-20T14:38:39.791Z,0.60
2018-08-20T14:41:08.458Z,0.70
2018-08-20T14:43:37.076Z,1.00
2018-08-20T14:46:11.171Z,0.83
2018-08-20T14:48:39.825Z,1.07
2018-08-20T14:51:08.599Z,2.60
2018-08-20T14:53:37.233Z,3.10
2018-08-20T14:56:05.897Z,1.43
2018-08-20T14:58:34.560Z,1.67
2018-08-20T15:01:03.201Z,2.50
2018-08-20T15:03:31.863Z,1.90
2018-08-20T15:06:00.511Z,2.03
2018-08-20T15:08:29.143Z,1.37
2018-08-20T15:10:57.836Z,1.33
2018-08-20T15:13:26.487Z,1.10
2018-08-20T15:15:55.147Z,1.10
2018-08-20T15:18:23.801Z,2.40
2018-08-20T15:20:52.475Z,0.77
2018-08-20T15:23:21.119Z,1.37
2018-08-20T15:25:49.793Z,1.33
2018-08-20T15:28:18.455Z,1.30
2018-08-20T15:30:47.164Z,2.20
2018-08-20T15:33:15.802Z,1.63
2018-08-20T15:35:44.475Z,1.83
2018-08-20T15:38:13.183Z,2.43
2018-08-20T15:40:41.862Z,3.20
2018-08-20T15:43:10.511Z,3.13
2018-08-20T15:45:39.199Z,2.60
2018-08-20T15:48:08.101Z,1.67
2018-08-20T15:50:36.793Z,3.50
2018-08-20T15:53:05.519Z,2.40
2018-08-20T15:55:34.168Z,3.90
2018-08-20T15:58:02.802Z,1.33
2018-08-20T16:00:31.475Z,1.53
2018-08-20T16:03:00.119Z,1.50
2018-08-20T16:05:28.795Z,6.70
2018-08-20T16:07:57.432Z,2.70
2018-08-20T16:10:26.093Z,1.17
2018-08-20T16:12:54.796Z,2.50
2018-08-20T16:15:23.455Z,5.60
2018-08-20T16:17:52.116Z,1.30
2018-08-20T16:20:20.770Z,0.93
2018-08-20T16:22:49.471Z,1.00
2018-08-20T16:25:18.122Z,2.33
2018-08-20T16:27:46.795Z,1.30
2018-08-20T16:30:15.473Z,1.93
2018-08-20T16:32:44.130Z,2.50
2018-08-20T16:35:13.581Z,1.17
2018-08-20T16:37:43.422Z,0.80
2018-08-20T16:40:12.305Z,2.10
2018-08-20T16:42:40.976Z,1.17
2018-08-20T16:45:10.332Z,0.97
2018-08-20T16:47:39.279Z,1.43
2018-08-20T16:50:09.578Z,2.03
2018-08-20T16:52:38.311Z,1.27
2018-08-20T16:55:07.739Z,1.53
2018-08-20T16:57:36.616Z,0.77
2018-08-20T17:00:07.017Z,1.70
2018-08-20T17:02:36.844Z,1.17
2018-08-20T17:05:05.498Z,2.13
2018-08-20T17:07:34.159Z,1.90
2018-08-20T17:10:02.790Z,1.00
2018-08-20T17:12:31.452Z,0.70
2018-08-20T17:15:00.157Z,1.17
2018-08-20T17:17:28.786Z,1.30
2018-08-20T17:19:57.452Z,0.90
2018-08-20T17:22:26.120Z,0.90
2018-08-20T17:24:55.692Z,1.90
2018-08-20T17:27:24.476Z,0.60
2018-08-20T17:29:54.546Z,0.80
2018-08-20T17:32:23.216Z,2.37
2018-08-20T17:34:51.832Z,0.80
2018-08-20T17:37:20.474Z,1.23
2018-08-20T17:40:01.780Z,2.13
2018-08-20T17:42:31.668Z,1.07
2018-08-20T17:45:01.066Z,1.17
2018-08-20T17:47:30.352Z,1.63
2018-08-20T17:49:59.888Z,1.20
2018-08-20T17:52:31.477Z,0.90
2018-08-20T17:55:02.594Z,1.57
2018-08-20T17:57:31.334Z,1.00
2018-08-20T18:00:43.955Z,2.73
2018-08-20T18:03:22.842Z,2.80
2018-08-20T18:05:52.506Z,3.13
2018-08-20T18:08:21.720Z,1.47
2018-08-20T18:10:50.583Z,2.03
2018-08-20T18:13:33.426Z,3.40
2018-08-20T18:16:04.167Z,3.00
2018-08-20T18:18:33.716Z,1.27
2018-08-20T18:21:02.431Z,4.60
2018-08-20T18:23:32.556Z,3.40
2018-08-20T18:26:01.284Z,3.43
2018-08-20T18:28:33.519Z,2.70
2018-08-20T18:31:11.032Z,4.33
2018-08-20T18:33:41.036Z,1.63
2018-08-20T18:36:16.040Z,2.10
2018-08-20T18:38:53.235Z,1.60
2018-08-20T18:42:30.201Z,2.80
2018-08-20T18:44:58.886Z,5.37
2018-08-20T18:47:27.568Z,3.17
2018-08-20T18:49:58.790Z,2.20
2018-08-20T18:52:29.121Z,1.23
2018-08-20T18:54:58.654Z,1.97
2018-08-20T18:57:31.592Z,1.27
2018-08-20T19:00:01.859Z,4.93
2018-08-20T19:02:54.356Z,4.13
2018-08-20T19:05:23.120Z,1.33
2018-08-20T19:07:51.881Z,2.00
2018-08-20T19:10:23.127Z,4.77
2018-08-20T19:12:51.956Z,3.93
2018-08-20T19:15:36.378Z,2.47
2018-08-20T19:18:05.859Z,3.27
2018-08-20T19:20:34.532Z,2.27
2018-08-20T19:23:03.252Z,4.60
2018-08-20T19:25:31.899Z,3.80
2018-08-20T19:28:04.180Z,2.23
2018-08-20T19:30:33.463Z,1.83
2018-08-20T19:33:04.504Z,1.63
2018-08-20T19:35:33.160Z,2.30
2018-08-20T19:38:01.874Z,3.37
2018-08-20T19:40:30.534Z,4.27
2018-08-20T19:42:59.170Z,4.40
2018-08-20T19:45:31.947Z,3.83
2018-08-20T19:48:00.685Z,5.50
2018-08-20T19:50:29.376Z,3.10
2018-08-20T19:52:58.018Z,3.87
2018-08-20T19:55:26.686Z,4.03
2018-08-20T19:57:55.381Z,3.00
2018-08-20T20:00:24.055Z,4.90
2018-08-20T20:02:52.703Z,1.47
2018-08-20T20:05:21.389Z,4.03
2018-08-20T20:07:55.502Z,6.03
2018-08-20T20:10:24.239Z,7.17
2018-08-20T20:12:55.818Z,2.67
2018-08-20T20:15:25.472Z,4.00
2018-08-20T20:17:55.213Z,5.33
2018-08-20T20:20:23.942Z,4.50
2018-08-20T20:22:52.604Z,6.00
2018-08-20T20:25:21.272Z,2.60
2018-08-20T20:27:49.950Z,4.70
2018-08-20T20:30:18.586Z,4.23
2018-08-20T20:32:47.243Z,2.20
2018-08-20T20:35:15.964Z,7.40
2018-08-20T20:37:44.619Z,5.63
2018-08-20T20:40:13.272Z,4.20
2018-08-20T20:42:41.912Z,3.40
2018-08-20T20:45:10.588Z,4.93
2018-08-20T20:47:39.219Z,3.53
2018-08-20T20:50:07.873Z,9.83
2018-08-20T20:52:36.573Z,4.27
2018-08-20T20:55:05.755Z,5.47
2018-08-20T20:57:34.416Z,6.27
2018-08-20T21:00:03.183Z,4.13
2018-08-20T21:02:32.072Z,4.53
2018-08-20T21:05:09.119Z,5.70
2018-08-20T21:07:37.842Z,6.87
2018-08-20T21:10:07.170Z,8.03
2018-08-20T21:12:35.812Z,5.93
2018-08-20T21:15:05.203Z,6.20
2018-08-20T21:17:34.943Z,2.20
2018-08-20T21:20:03.880Z,6.20
2018-08-20T21:22:35.270Z,7.83
2018-08-20T21:25:05.198Z,3.33
2018-08-20T21:27:33.839Z,4.50
2018-08-20T21:30:02.909Z,3.30
2018-08-20T21:32:31.589Z,9.87
2018-08-20T21:35:00.261Z,4.83
2018-08-20T21:37:28.918Z,4.40
2018-08-20T21:39:57.581Z,4.67
2018-08-20T21:42:43.837Z,3.73
2018-08-20T21:45:13.133Z,5.70
2018-08-20T21:47:41.774Z,8.70
2018-08-20T21:50:10.454Z,6.17
2018-08-20T21:52:39.113Z,8.50
2018-08-20T21:55:08.103Z,4.37
2018-08-20T21:57:40.424Z,9.13
2018-08-20T22:00:15.036Z,3.30
2018-08-20T22:02:47.885Z,3.13
2018-08-20T22:05:16.579Z,7.63
2018-08-20T22:07:45.244Z,6.57
2018-08-20T22:10:13.952Z,5.13
2018-08-20T22:12:42.595Z,5.77
2018-08-20T22:15:11.257Z,6.03
2018-08-20T22:17:42.850Z,7.67
2018-08-20T22:20:11.535Z,5.70
2018-08-20T22:22:40.224Z,5.50
2018-08-20T22:25:10.954Z,10.57
2018-08-20T22:27:44.859Z,3.40
2018-08-20T22:30:13.604Z,3.90
2018-08-20T22:32:42.309Z,4.47
2018-08-20T22:35:17.957Z,3.43
2018-08-20T22:37:49.399Z,3.67
2018-08-20T22:40:19.905Z,3.93
2018-08-20T22:42:53.587Z,2.20
2018-08-20T22:45:22.653Z,3.50
2018-08-20T22:47:51.967Z,4.97
2018-08-20T22:50:20.618Z,10.17
2018-08-20T22:52:50.816Z,2.33
2018-08-20T22:55:20.897Z,6.73
2018-08-20T22:58:00.944Z,5.73
2018-08-20T23:00:29.574Z,3.80
2018-08-20T23:02:58.364Z,6.17
2018-08-20T23:05:31.302Z,6.17
2018-08-20T23:08:01.631Z,7.63
2018-08-20T23:10:30.295Z,3.90
2018-08-20T23:12:58.975Z,5.80
2018-08-20T23:15:27.691Z,9.27
2018-08-20T23:17:56.504Z,8.97
2018-08-20T23:20:32.016Z,2.60
2018-08-20T23:23:01.381Z,6.50
2018-08-20T23:25:30.385Z,3.73
2018-08-20T23:27:59.054Z,11.17
2018-08-20T23:30:27.724Z,3.10
2018-08-20T23:32:56.386Z,2.67
2018-08-20T23:35:25.024Z,4.23
2018-08-20T23:37:53.680Z,9.70
2018-08-20T23:40:22.319Z,6.53
2018-08-20T23:42:50.986Z,4.60
2018-08-20T23:45:19.639Z,3.93
2018-08-20T23:47:48.286Z,4.30
2018-08-20T23:50:16.931Z,5.47
2018-08-20T23:52:45.599Z,3.67
2018-08-20T23:55:14.278Z,4.13
2018-08-20T23:57:42.936Z,7.30
